sensor_id;sensor_type;location;lat;lon;timestamp;temperature;humidity
1592;DHT22;789;51.612;7.510;2024-03-17T00:01:50;9.30;1.00
1592;DHT22;789;51.612;7.510;2024-03-17T00:04:17;9.20;1.00
1592;DHT22;789;51.612;7.510;2024-03-17T00:06:45;9.30;1.00
1592;DHT22;789;51.612;7.510;2024-03-17T00:09:12;9.30;1.00
1592;DHT22;789;51.612;7.510;2024-03-17T00:11:39;9.20;1.00
1592;DHT22;789;51.612;7.510;2024-03-17T00:14:05;9.20;1.00
1592;DHT22;789;51.612;7.510;2024-03-17T00:16:32;9.10;1.00
1592;DHT22;789;51.612;7.510;2024-03-17T00:18:58;9.80;1.00
1592;DHT22;789;51.612;7.510;2024-03-17T00:21:24;9.10;1.00
1592;DHT22;789;51.612;7.510;2024-03-17T00:23:53;9.00;1.00
1592;DHT22;789;51.612;7.510;2024-03-17T00:26:19;9.00;1.00
1592;DHT22;789;51.612;7.510;2024-03-17T00:28:46;9.00;1.00
1592;DHT22;789;51.612;7.510;2024-03-17T00:31:16;9.00;1.00
1592;DHT22;789;51.612;7.510;2024-03-17T00:33:42;8.90;1.00
1592;DHT22;789;51.612;7.510;2024-03-17T00:36:09;9.10;1.00
1592;DHT22;789;51.612;7.510;2024-03-17T00:38:35;8.90;1.00
1592;DHT22;789;51.612;7.510;2024-03-17T00:41:04;8.80;1.00
1592;DHT22;789;51.612;7.510;2024-03-17T00:43:30;8.90;1.00
1592;DHT22;789;51.612;7.510;2024-03-17T00:45:57;8.80;1.00
1592;DHT22;789;51.612;7.510;2024-03-17T00:48:23;8.70;1.00
1592;DHT22;789;51.612;7.510;2024-03-17T00:50:55;8.70;1.00
1592;DHT22;789;51.612;7.510;2024-03-17T00:53:21;8.70;1.00
1592;DHT22;789;51.612;7.510;2024-03-17T00:55:51;8.60;1.00
1592;DHT22;789;51.612;7.510;2024-03-17T00:58:19;8.90;1.00
1592;DHT22;789;51.612;7.510;2024-03-17T01:00:45;8.70;1.00
1592;DHT22;789;51.612;7.510;2024-03-17T01:03:13;8.60;1.00
1592;DHT22;789;51.612;7.510;2024-03-17T01:05:40;8.60;1.00
1592;DHT22;789;51.612;7.510;2024-03-17T01:08:08;8.50;1.00
1592;DHT22;789;51.612;7.510;2024-03-17T01:10:37;8.50;1.00
1592;DHT22;789;51.612;7.510;2024-03-17T01:13:03;8.50;1.00
1592;DHT22;789;51.612;7.510;2024-03-17T01:15:31;8.50;1.00
1592;DHT22;789;51.612;7.510;2024-03-17T01:17:57;8.40;1.00
1592;DHT22;789;51.612;7.510;2024-03-17T01:20:25;8.40;1.00
1592;DHT22;789;51.612;7.510;2024-03-17T01:22:50;8.40;1.00
1592;DHT22;789;51.612;7.510;2024-03-17T01:25:18;8.40;1.00
1592;DHT22;789;51.612;7.510;2024-03-17T01:27:43;8.30;1.00
1592;DHT22;789;51.612;7.510;2024-03-17T01:30:11;8.30;1.00
1592;DHT22;789;51.612;7.510;2024-03-17T01:32:38;8.30;1.00
1592;DHT22;789;51.612;7.510;2024-03-17T01:35:05;8.20;1.00
1592;DHT22;789;51.612;7.510;2024-03-17T01:37:31;8.30;1.00
1592;DHT22;789;51.612;7.510;2024-03-17T01:39:58;8.30;1.00
1592;DHT22;789;51.612;7.510;2024-03-17T01:42:24;8.30;1.00
1592;DHT22;789;51.612;7.510;2024-03-17T01:44:50;8.10;1.00
1592;DHT22;789;51.612;7.510;2024-03-17T01:47:16;8.20;1.00
1592;DHT22;789;51.612;7.510;2024-03-17T01:49:45;8.20;1.00
1592;DHT22;789;51.612;7.510;2024-03-17T01:52:11;8.10;1.00
1592;DHT22;789;51.612;7.510;2024-03-17T01:54:38;8.10;1.00
1592;DHT22;789;51.612;7.510;2024-03-17T01:57:04;7.70;1.00
1592;DHT22;789;51.612;7.510;2024-03-17T01:59:31;8.10;1.00
1592;DHT22;789;51.612;7.510;2024-03-17T02:01:56;8.00;1.00
1592;DHT22;789;51.612;7.510;2024-03-17T02:04:23;7.90;1.00
1592;DHT22;789;51.612;7.510;2024-03-17T02:06:50;8.00;1.00
1592;DHT22;789;51.612;7.510;2024-03-17T02:09:17;7.90;1.00
1592;DHT22;789;51.612;7.510;2024-03-17T02:11:44;8.00;1.00
1592;DHT22;789;51.612;7.510;2024-03-17T02:14:11;7.90;1.00
1592;DHT22;789;51.612;7.510;2024-03-17T02:16:39;7.20;1.00
1592;DHT22;789;51.612;7.510;2024-03-17T02:19:06;7.80;1.00
1592;DHT22;789;51.612;7.510;2024-03-17T02:21:32;7.70;1.00
1592;DHT22;789;51.612;7.510;2024-03-17T02:24:00;8.40;1.00
1592;DHT22;789;51.612;7.510;2024-03-17T02:26:28;7.70;1.00
1592;DHT22;789;51.612;7.510;2024-03-17T02:28:53;7.70;1.00
1592;DHT22;789;51.612;7.510;2024-03-17T02:31:20;7.70;1.00
1592;DHT22;789;51.612;7.510;2024-03-17T02:33:47;7.70;1.00
1592;DHT22;789;51.612;7.510;2024-03-17T02:36:14;7.70;1.00
1592;DHT22;789;51.612;7.510;2024-03-17T02:38:42;7.50;1.00
1592;DHT22;789;51.612;7.510;2024-03-17T02:41:28;7.60;1.00
1592;DHT22;789;51.612;7.510;2024-03-17T02:43:55;7.60;1.00
1592;DHT22;789;51.612;7.510;2024-03-17T02:46:22;7.60;1.00
1592;DHT22;789;51.612;7.510;2024-03-17T02:48:51;7.60;1.00
1592;DHT22;789;51.612;7.510;2024-03-17T02:51:19;7.50;1.00
1592;DHT22;789;51.612;7.510;2024-03-17T02:53:47;7.50;1.00
1592;DHT22;789;51.612;7.510;2024-03-17T02:56:16;7.40;1.00
1592;DHT22;789;51.612;7.510;2024-03-17T02:58:45;7.40;1.00
1592;DHT22;789;51.612;7.510;2024-03-17T03:01:12;7.20;1.00
1592;DHT22;789;51.612;7.510;2024-03-17T03:03:40;7.30;1.00
1592;DHT22;789;51.612;7.510;2024-03-17T03:06:07;7.30;1.00
1592;DHT22;789;51.612;7.510;2024-03-17T03:08:37;7.30;1.00
1592;DHT22;789;51.612;7.510;2024-03-17T03:11:06;7.30;1.00
1592;DHT22;789;51.612;7.510;2024-03-17T03:13:36;7.30;1.00
1592;DHT22;789;51.612;7.510;2024-03-17T03:16:05;7.30;1.00
1592;DHT22;789;51.612;7.510;2024-03-17T03:18:32;7.30;1.00
1592;DHT22;789;51.612;7.510;2024-03-17T03:20:59;7.30;1.00
1592;DHT22;789;51.612;7.510;2024-03-17T03:23:25;7.30;1.00
1592;DHT22;789;51.612;7.510;2024-03-17T03:25:55;7.30;1.00
1592;DHT22;789;51.612;7.510;2024-03-17T03:28:22;7.20;1.00
1592;DHT22;789;51.612;7.510;2024-03-17T03:30:49;7.20;1.00
1592;DHT22;789;51.612;7.510;2024-03-17T03:33:18;7.10;1.00
1592;DHT22;789;51.612;7.510;2024-03-17T03:35:45;7.10;1.00
1592;DHT22;789;51.612;7.510;2024-03-17T03:38:12;7.10;1.00
1592;DHT22;789;51.612;7.510;2024-03-17T03:40:39;7.10;1.00
1592;DHT22;789;51.612;7.510;2024-03-17T03:43:06;7.10;1.00
1592;DHT22;789;51.612;7.510;2024-03-17T03:45:33;7.10;1.00
1592;DHT22;789;51.612;7.510;2024-03-17T03:48:00;7.10;1.00
1592;DHT22;789;51.612;7.510;2024-03-17T03:50:30;7.00;1.00
1592;DHT22;789;51.612;7.510;2024-03-17T03:52:56;7.10;1.00
1592;DHT22;789;51.612;7.510;2024-03-17T03:55:23;7.00;1.00
1592;DHT22;789;51.612;7.510;2024-03-17T03:57:50;7.00;1.00
1592;DHT22;789;51.612;7.510;2024-03-17T04:00:18;7.00;1.00
1592;DHT22;789;51.612;7.510;2024-03-17T04:02:48;7.00;1.00
1592;DHT22;789;51.612;7.510;2024-03-17T04:05:16;7.00;1.00
1592;DHT22;789;51.612;7.510;2024-03-17T04:07:44;7.00;1.00
1592;DHT22;789;51.612;7.510;2024-03-17T04:10:13;6.90;1.00
1592;DHT22;789;51.612;7.510;2024-03-17T04:12:40;7.00;1.00
1592;DHT22;789;51.612;7.510;2024-03-17T04:15:07;6.90;1.00
1592;DHT22;789;51.612;7.510;2024-03-17T04:17:36;6.90;1.00
1592;DHT22;789;51.612;7.510;2024-03-17T04:20:03;6.90;1.00
1592;DHT22;789;51.612;7.510;2024-03-17T04:22:33;6.90;1.00
1592;DHT22;789;51.612;7.510;2024-03-17T04:25:02;6.80;1.00
1592;DHT22;789;51.612;7.510;2024-03-17T04:27:29;6.90;1.00
1592;DHT22;789;51.612;7.510;2024-03-17T04:29:58;6.80;1.00
1592;DHT22;789;51.612;7.510;2024-03-17T04:32:25;6.80;1.00
1592;DHT22;789;51.612;7.510;2024-03-17T04:34:53;6.80;1.00
1592;DHT22;789;51.612;7.510;2024-03-17T04:37:20;6.80;1.00
1592;DHT22;789;51.612;7.510;2024-03-17T04:39:48;6.80;1.00
1592;DHT22;789;51.612;7.510;2024-03-17T04:42:16;6.80;1.00
1592;DHT22;789;51.612;7.510;2024-03-17T04:44:45;6.70;1.00
1592;DHT22;789;51.612;7.510;2024-03-17T04:47:12;6.70;1.00
1592;DHT22;789;51.612;7.510;2024-03-17T04:49:40;6.70;1.00
1592;DHT22;789;51.612;7.510;2024-03-17T04:52:07;6.60;1.00
1592;DHT22;789;51.612;7.510;2024-03-17T04:54:34;6.60;1.00
1592;DHT22;789;51.612;7.510;2024-03-17T04:57:01;6.60;1.00
1592;DHT22;789;51.612;7.510;2024-03-17T04:59:29;6.60;1.00
1592;DHT22;789;51.612;7.510;2024-03-17T05:01:56;6.60;1.00
1592;DHT22;789;51.612;7.510;2024-03-17T05:04:23;6.60;1.00
1592;DHT22;789;51.612;7.510;2024-03-17T05:06:50;6.60;1.00
1592;DHT22;789;51.612;7.510;2024-03-17T05:09:17;6.60;1.00
1592;DHT22;789;51.612;7.510;2024-03-17T05:11:43;6.50;1.00
1592;DHT22;789;51.612;7.510;2024-03-17T05:14:10;6.60;1.00
1592;DHT22;789;51.612;7.510;2024-03-17T05:16:39;6.60;1.00
1592;DHT22;789;51.612;7.510;2024-03-17T05:19:06;6.60;1.00
1592;DHT22;789;51.612;7.510;2024-03-17T05:21:34;6.70;1.00
1592;DHT22;789;51.612;7.510;2024-03-17T05:24:02;6.60;1.00
1592;DHT22;789;51.612;7.510;2024-03-17T05:26:29;6.60;1.00
1592;DHT22;789;51.612;7.510;2024-03-17T05:28:57;6.60;1.00
1592;DHT22;789;51.612;7.510;2024-03-17T05:31:23;6.50;1.00
1592;DHT22;789;51.612;7.510;2024-03-17T05:33:51;6.80;1.00
1592;DHT22;789;51.612;7.510;2024-03-17T05:36:19;6.50;1.00
1592;DHT22;789;51.612;7.510;2024-03-17T05:38:46;6.50;1.00
1592;DHT22;789;51.612;7.510;2024-03-17T05:41:14;6.50;1.00
1592;DHT22;789;51.612;7.510;2024-03-17T05:43:40;6.50;1.00
1592;DHT22;789;51.612;7.510;2024-03-17T05:46:10;6.40;1.00
1592;DHT22;789;51.612;7.510;2024-03-17T05:48:39;6.40;1.00
1592;DHT22;789;51.612;7.510;2024-03-17T05:51:08;6.40;1.00
1592;DHT22;789;51.612;7.510;2024-03-17T05:53:35;6.40;1.00
1592;DHT22;789;51.612;7.510;2024-03-17T05:56:03;6.50;1.00
1592;DHT22;789;51.612;7.510;2024-03-17T05:58:30;6.40;1.00
1592;DHT22;789;51.612;7.510;2024-03-17T06:00:57;6.40;1.00
1592;DHT22;789;51.612;7.510;2024-03-17T06:03:23;6.40;1.00
1592;DHT22;789;51.612;7.510;2024-03-17T06:05:50;6.40;1.00
1592;DHT22;789;51.612;7.510;2024-03-17T06:08:18;6.40;1.00
1592;DHT22;789;51.612;7.510;2024-03-17T06:10:47;6.40;1.00
1592;DHT22;789;51.612;7.510;2024-03-17T06:13:14;6.80;1.00
1592;DHT22;789;51.612;7.510;2024-03-17T06:15:42;6.30;1.00
1592;DHT22;789;51.612;7.510;2024-03-17T06:18:12;6.30;1.00
1592;DHT22;789;51.612;7.510;2024-03-17T06:20:40;6.40;1.00
1592;DHT22;789;51.612;7.510;2024-03-17T06:23:09;6.30;1.00
1592;DHT22;789;51.612;7.510;2024-03-17T06:25:39;6.40;1.00
1592;DHT22;789;51.612;7.510;2024-03-17T06:28:07;6.50;1.00
1592;DHT22;789;51.612;7.510;2024-03-17T06:30:35;6.60;1.00
1592;DHT22;789;51.612;7.510;2024-03-17T06:33:03;7.20;1.00
1592;DHT22;789;51.612;7.510;2024-03-17T06:35:31;7.30;1.00
1592;DHT22;789;51.612;7.510;2024-03-17T06:37:59;6.70;1.00
1592;DHT22;789;51.612;7.510;2024-03-17T06:40:26;7.00;1.00
1592;DHT22;789;51.612;7.510;2024-03-17T06:42:55;7.20;1.00
1592;DHT22;789;51.612;7.510;2024-03-17T06:45:21;7.40;1.00
1592;DHT22;789;51.612;7.510;2024-03-17T06:47:49;8.00;1.00
1592;DHT22;789;51.612;7.510;2024-03-17T06:50:16;8.00;1.00
1592;DHT22;789;51.612;7.510;2024-03-17T06:52:43;8.30;1.00
1592;DHT22;789;51.612;7.510;2024-03-17T06:55:10;8.90;1.00
1592;DHT22;789;51.612;7.510;2024-03-17T06:57:38;8.50;1.00
1592;DHT22;789;51.612;7.510;2024-03-17T07:00:07;8.70;1.00
1592;DHT22;789;51.612;7.510;2024-03-17T07:02:39;8.80;1.00
1592;DHT22;789;51.612;7.510;2024-03-17T07:05:07;8.80;1.00
1592;DHT22;789;51.612;7.510;2024-03-17T07:07:34;8.80;1.00
1592;DHT22;789;51.612;7.510;2024-03-17T07:10:00;8.80;1.00
1592;DHT22;789;51.612;7.510;2024-03-17T07:12:30;9.10;1.00
1592;DHT22;789;51.612;7.510;2024-03-17T07:14:57;9.50;1.00
1592;DHT22;789;51.612;7.510;2024-03-17T07:17:25;10.00;1.00
1592;DHT22;789;51.612;7.510;2024-03-17T07:19:52;10.70;1.00
1592;DHT22;789;51.612;7.510;2024-03-17T07:22:18;11.50;1.00
1592;DHT22;789;51.612;7.510;2024-03-17T07:24:45;12.30;1.00
1592;DHT22;789;51.612;7.510;2024-03-17T07:27:12;12.90;1.00
1592;DHT22;789;51.612;7.510;2024-03-17T07:29:40;13.90;1.00
1592;DHT22;789;51.612;7.510;2024-03-17T07:32:07;14.00;1.00
1592;DHT22;789;51.612;7.510;2024-03-17T07:34:35;14.50;1.00
1592;DHT22;789;51.612;7.510;2024-03-17T07:37:02;15.00;1.00
1592;DHT22;789;51.612;7.510;2024-03-17T07:39:29;15.80;1.00
1592;DHT22;789;51.612;7.510;2024-03-17T07:41:57;16.70;1.00
1592;DHT22;789;51.612;7.510;2024-03-17T07:44:24;17.60;1.00
1592;DHT22;789;51.612;7.510;2024-03-17T07:46:51;18.30;1.00
1592;DHT22;789;51.612;7.510;2024-03-17T07:49:20;18.70;1.00
1592;DHT22;789;51.612;7.510;2024-03-17T07:51:48;19.00;1.00
1592;DHT22;789;51.612;7.510;2024-03-17T07:54:15;19.50;1.00
1592;DHT22;789;51.612;7.510;2024-03-17T07:56:44;19.50;1.00
1592;DHT22;789;51.612;7.510;2024-03-17T07:59:11;18.70;1.00
1592;DHT22;789;51.612;7.510;2024-03-17T08:01:40;17.70;1.00
1592;DHT22;789;51.612;7.510;2024-03-17T08:04:07;16.80;1.00
1592;DHT22;789;51.612;7.510;2024-03-17T08:06:34;15.80;1.00
1592;DHT22;789;51.612;7.510;2024-03-17T08:09:04;15.00;1.00
1592;DHT22;789;51.612;7.510;2024-03-17T08:11:33;14.20;1.00
1592;DHT22;789;51.612;7.510;2024-03-17T08:14:00;13.70;1.00
1592;DHT22;789;51.612;7.510;2024-03-17T08:16:27;13.30;1.00
1592;DHT22;789;51.612;7.510;2024-03-17T08:18:54;13.00;1.00
1592;DHT22;789;51.612;7.510;2024-03-17T08:21:21;12.70;1.00
1592;DHT22;789;51.612;7.510;2024-03-17T08:23:48;12.60;1.00
1592;DHT22;789;51.612;7.510;2024-03-17T08:26:16;12.30;1.00
1592;DHT22;789;51.612;7.510;2024-03-17T08:28:43;12.30;1.00
1592;DHT22;789;51.612;7.510;2024-03-17T08:31:10;12.30;1.00
1592;DHT22;789;51.612;7.510;2024-03-17T08:33:38;12.80;1.00
1592;DHT22;789;51.612;7.510;2024-03-17T08:36:06;12.40;1.00
1592;DHT22;789;51.612;7.510;2024-03-17T08:38:34;12.30;1.00
1592;DHT22;789;51.612;7.510;2024-03-17T08:41:03;12.40;1.00
1592;DHT22;789;51.612;7.510;2024-03-17T08:43:31;12.80;1.00
1592;DHT22;789;51.612;7.510;2024-03-17T08:45:59;13.10;1.00
1592;DHT22;789;51.612;7.510;2024-03-17T08:48:28;13.60;1.00
1592;DHT22;789;51.612;7.510;2024-03-17T08:50:56;14.00;1.00
1592;DHT22;789;51.612;7.510;2024-03-17T08:53:24;14.60;1.00
1592;DHT22;789;51.612;7.510;2024-03-17T08:55:51;15.40;1.00
1592;DHT22;789;51.612;7.510;2024-03-17T08:58:18;16.10;1.00
1592;DHT22;789;51.612;7.510;2024-03-17T09:00:46;16.80;1.00
1592;DHT22;789;51.612;7.510;2024-03-17T09:03:13;17.70;1.00
1592;DHT22;789;51.612;7.510;2024-03-17T09:05:41;18.60;1.00
1592;DHT22;789;51.612;7.510;2024-03-17T09:08:15;19.30;1.00
1592;DHT22;789;51.612;7.510;2024-03-17T09:10:43;19.50;1.00
1592;DHT22;789;51.612;7.510;2024-03-17T09:13:13;19.60;1.00
1592;DHT22;789;51.612;7.510;2024-03-17T09:15:40;19.30;1.00
1592;DHT22;789;51.612;7.510;2024-03-17T09:18:08;18.90;1.00
1592;DHT22;789;51.612;7.510;2024-03-17T09:20:35;18.80;1.00
1592;DHT22;789;51.612;7.510;2024-03-17T09:23:01;18.80;1.00
1592;DHT22;789;51.612;7.510;2024-03-17T09:25:29;18.80;1.00
1592;DHT22;789;51.612;7.510;2024-03-17T09:27:55;19.30;1.00
1592;DHT22;789;51.612;7.510;2024-03-17T09:30:22;20.40;1.00
1592;DHT22;789;51.612;7.510;2024-03-17T09:32:49;21.20;1.00
1592;DHT22;789;51.612;7.510;2024-03-17T09:35:17;22.00;1.00
1592;DHT22;789;51.612;7.510;2024-03-17T09:37:44;22.30;1.00
1592;DHT22;789;51.612;7.510;2024-03-17T09:40:14;23.00;1.00
1592;DHT22;789;51.612;7.510;2024-03-17T09:42:41;23.60;1.00
1592;DHT22;789;51.612;7.510;2024-03-17T09:45:10;24.10;1.00
1592;DHT22;789;51.612;7.510;2024-03-17T09:47:37;23.60;1.00
1592;DHT22;789;51.612;7.510;2024-03-17T09:50:05;23.70;1.00
1592;DHT22;789;51.612;7.510;2024-03-17T09:52:42;23.00;1.00
1592;DHT22;789;51.612;7.510;2024-03-17T09:55:15;22.50;1.00
1592;DHT22;789;51.612;7.510;2024-03-17T09:57:42;22.50;1.00
1592;DHT22;789;51.612;7.510;2024-03-17T10:00:11;22.50;1.00
1592;DHT22;789;51.612;7.510;2024-03-17T10:02:42;22.80;1.00
1592;DHT22;789;51.612;7.510;2024-03-17T10:05:18;23.00;1.00
1592;DHT22;789;51.612;7.510;2024-03-17T10:07:47;23.30;1.00
1592;DHT22;789;51.612;7.510;2024-03-17T10:10:14;23.30;1.00
1592;DHT22;789;51.612;7.510;2024-03-17T10:12:47;23.30;1.00
1592;DHT22;789;51.612;7.510;2024-03-17T10:15:15;23.70;1.00
1592;DHT22;789;51.612;7.510;2024-03-17T10:17:42;24.10;1.00
1592;DHT22;789;51.612;7.510;2024-03-17T10:20:16;24.90;1.00
1592;DHT22;789;51.612;7.510;2024-03-17T10:22:59;25.20;1.00
1592;DHT22;789;51.612;7.510;2024-03-17T10:25:27;25.70;1.00
1592;DHT22;789;51.612;7.510;2024-03-17T10:27:54;25.60;1.00
1592;DHT22;789;51.612;7.510;2024-03-17T10:30:22;24.90;1.00
1592;DHT22;789;51.612;7.510;2024-03-17T10:32:55;23.90;1.00
1592;DHT22;789;51.612;7.510;2024-03-17T10:35:27;23.10;1.00
1592;DHT22;789;51.612;7.510;2024-03-17T10:37:55;22.40;1.00
1592;DHT22;789;51.612;7.510;2024-03-17T10:40:24;22.30;1.00
1592;DHT22;789;51.612;7.510;2024-03-17T10:42:51;21.40;1.00
1592;DHT22;789;51.612;7.510;2024-03-17T10:45:18;21.30;1.00
1592;DHT22;789;51.612;7.510;2024-03-17T10:47:48;21.10;1.00
1592;DHT22;789;51.612;7.510;2024-03-17T10:50:17;20.50;1.00
1592;DHT22;789;51.612;7.510;2024-03-17T10:52:46;20.00;1.00
1592;DHT22;789;51.612;7.510;2024-03-17T10:55:20;20.10;1.00
1592;DHT22;789;51.612;7.510;2024-03-17T10:57:50;19.00;1.00
1592;DHT22;789;51.612;7.510;2024-03-17T11:00:18;18.20;1.00
1592;DHT22;789;51.612;7.510;2024-03-17T11:02:48;18.20;1.00
1592;DHT22;789;51.612;7.510;2024-03-17T11:05:18;17.50;1.00
1592;DHT22;789;51.612;7.510;2024-03-17T11:07:47;17.30;1.00
1592;DHT22;789;51.612;7.510;2024-03-17T11:10:19;17.50;1.00
1592;DHT22;789;51.612;7.510;2024-03-17T11:12:50;17.60;1.00
1592;DHT22;789;51.612;7.510;2024-03-17T11:15:37;17.70;1.00
1592;DHT22;789;51.612;7.510;2024-03-17T11:18:28;17.80;1.00
1592;DHT22;789;51.612;7.510;2024-03-17T11:20:59;17.70;1.00
1592;DHT22;789;51.612;7.510;2024-03-17T11:23:29;17.50;1.00
1592;DHT22;789;51.612;7.510;2024-03-17T11:25:57;17.30;1.00
1592;DHT22;789;51.612;7.510;2024-03-17T11:28:47;17.60;1.00
1592;DHT22;789;51.612;7.510;2024-03-17T11:31:33;17.30;1.00
1592;DHT22;789;51.612;7.510;2024-03-17T11:34:01;17.20;1.00
1592;DHT22;789;51.612;7.510;2024-03-17T11:36:38;17.30;1.00
1592;DHT22;789;51.612;7.510;2024-03-17T11:39:05;17.40;1.00
1592;DHT22;789;51.612;7.510;2024-03-17T11:41:37;17.40;1.00
1592;DHT22;789;51.612;7.510;2024-03-17T11:44:24;17.50;1.00
1592;DHT22;789;51.612;7.510;2024-03-17T11:46:53;17.70;1.00
1592;DHT22;789;51.612;7.510;2024-03-17T11:49:20;17.90;1.00
1592;DHT22;789;51.612;7.510;2024-03-17T11:51:48;17.90;1.00
1592;DHT22;789;51.612;7.510;2024-03-17T11:54:15;18.10;1.00
1592;DHT22;789;51.612;7.510;2024-03-17T11:56:45;18.30;1.00
1592;DHT22;789;51.612;7.510;2024-03-17T11:59:10;18.50;1.00
1592;DHT22;789;51.612;7.510;2024-03-17T12:01:39;18.60;1.00
1592;DHT22;789;51.612;7.510;2024-03-17T12:04:05;18.50;1.00
1592;DHT22;789;51.612;7.510;2024-03-17T12:06:33;18.50;1.00
1592;DHT22;789;51.612;7.510;2024-03-17T12:09:20;18.50;1.00
1592;DHT22;789;51.612;7.510;2024-03-17T12:11:51;18.60;1.00
1592;DHT22;789;51.612;7.510;2024-03-17T12:14:19;18.40;1.00
1592;DHT22;789;51.612;7.510;2024-03-17T12:16:51;18.30;1.00
1592;DHT22;789;51.612;7.510;2024-03-17T12:19:18;18.00;1.00
1592;DHT22;789;51.612;7.510;2024-03-17T12:21:48;17.90;1.00
1592;DHT22;789;51.612;7.510;2024-03-17T12:24:16;18.50;1.00
1592;DHT22;789;51.612;7.510;2024-03-17T12:26:45;18.00;1.00
1592;DHT22;789;51.612;7.510;2024-03-17T12:29:24;18.00;1.00
1592;DHT22;789;51.612;7.510;2024-03-17T12:31:55;18.00;1.00
1592;DHT22;789;51.612;7.510;2024-03-17T12:34:22;18.00;1.00
1592;DHT22;789;51.612;7.510;2024-03-17T12:36:49;17.70;1.00
1592;DHT22;789;51.612;7.510;2024-03-17T12:39:20;17.60;1.00
1592;DHT22;789;51.612;7.510;2024-03-17T12:42:04;17.30;1.00
1592;DHT22;789;51.612;7.510;2024-03-17T12:44:31;17.10;1.00
1592;DHT22;789;51.612;7.510;2024-03-17T12:47:00;17.00;1.00
1592;DHT22;789;51.612;7.510;2024-03-17T12:49:27;17.10;1.00
1592;DHT22;789;51.612;7.510;2024-03-17T12:51:54;17.10;1.00
1592;DHT22;789;51.612;7.510;2024-03-17T12:54:21;17.10;1.00
1592;DHT22;789;51.612;7.510;2024-03-17T12:56:50;17.00;1.00
1592;DHT22;789;51.612;7.510;2024-03-17T12:59:39;17.00;1.00
1592;DHT22;789;51.612;7.510;2024-03-17T13:02:25;17.00;1.00
1592;DHT22;789;51.612;7.510;2024-03-17T13:05:07;16.80;1.00
1592;DHT22;789;51.612;7.510;2024-03-17T13:07:35;16.70;1.00
1592;DHT22;789;51.612;7.510;2024-03-17T13:10:01;16.70;1.00
1592;DHT22;789;51.612;7.510;2024-03-17T13:12:29;16.80;1.00
1592;DHT22;789;51.612;7.510;2024-03-17T13:14:56;16.80;1.00
1592;DHT22;789;51.612;7.510;2024-03-17T13:17:23;16.70;1.00
1592;DHT22;789;51.612;7.510;2024-03-17T13:19:51;16.80;1.00
1592;DHT22;789;51.612;7.510;2024-03-17T13:22:17;17.20;1.00
1592;DHT22;789;51.612;7.510;2024-03-17T13:24:44;16.60;1.00
1592;DHT22;789;51.612;7.510;2024-03-17T13:27:11;16.50;1.00
1592;DHT22;789;51.612;7.510;2024-03-17T13:29:40;16.40;1.00
1592;DHT22;789;51.612;7.510;2024-03-17T13:32:09;16.20;1.00
1592;DHT22;789;51.612;7.510;2024-03-17T13:34:36;16.40;1.00
1592;DHT22;789;51.612;7.510;2024-03-17T13:37:04;15.90;1.00
1592;DHT22;789;51.612;7.510;2024-03-17T13:39:33;15.80;1.00
1592;DHT22;789;51.612;7.510;2024-03-17T13:42:00;15.60;1.00
1592;DHT22;789;51.612;7.510;2024-03-17T13:44:29;15.60;1.00
1592;DHT22;789;51.612;7.510;2024-03-17T13:46:57;15.60;1.00
1592;DHT22;789;51.612;7.510;2024-03-17T13:49:24;15.70;1.00
1592;DHT22;789;51.612;7.510;2024-03-17T13:51:51;16.10;1.00
1592;DHT22;789;51.612;7.510;2024-03-17T13:54:19;15.80;1.00
1592;DHT22;789;51.612;7.510;2024-03-17T13:56:47;15.80;1.00
1592;DHT22;789;51.612;7.510;2024-03-17T13:59:14;15.90;1.00
1592;DHT22;789;51.612;7.510;2024-03-17T14:01:41;16.10;1.00
1592;DHT22;789;51.612;7.510;2024-03-17T14:04:13;16.40;1.00
1592;DHT22;789;51.612;7.510;2024-03-17T14:06:40;16.10;1.00
1592;DHT22;789;51.612;7.510;2024-03-17T14:09:07;16.00;1.00
1592;DHT22;789;51.612;7.510;2024-03-17T14:11:37;16.00;1.00
1592;DHT22;789;51.612;7.510;2024-03-17T14:14:04;16.00;1.00
1592;DHT22;789;51.612;7.510;2024-03-17T14:16:31;16.20;1.00
1592;DHT22;789;51.612;7.510;2024-03-17T14:18:59;16.50;1.00
1592;DHT22;789;51.612;7.510;2024-03-17T14:21:26;15.70;1.00
1592;DHT22;789;51.612;7.510;2024-03-17T14:23:54;16.50;1.00
1592;DHT22;789;51.612;7.510;2024-03-17T14:26:20;15.90;1.00
1592;DHT22;789;51.612;7.510;2024-03-17T14:28:49;16.00;1.00
1592;DHT22;789;51.612;7.510;2024-03-17T14:31:17;16.00;1.00
1592;DHT22;789;51.612;7.510;2024-03-17T14:33:43;16.10;1.00
1592;DHT22;789;51.612;7.510;2024-03-17T14:36:10;16.00;1.00
1592;DHT22;789;51.612;7.510;2024-03-17T14:38:37;15.80;1.00
1592;DHT22;789;51.612;7.510;2024-03-17T14:41:04;15.90;1.00
1592;DHT22;789;51.612;7.510;2024-03-17T14:43:31;15.70;1.00
1592;DHT22;789;51.612;7.510;2024-03-17T14:46:02;16.00;1.00
1592;DHT22;789;51.612;7.510;2024-03-17T14:48:29;15.60;1.00
1592;DHT22;789;51.612;7.510;2024-03-17T14:50:56;15.60;1.00
1592;DHT22;789;51.612;7.510;2024-03-17T14:53:22;15.50;1.00
1592;DHT22;789;51.612;7.510;2024-03-17T14:55:49;15.50;1.00
1592;DHT22;789;51.612;7.510;2024-03-17T14:58:16;15.70;1.00
1592;DHT22;789;51.612;7.510;2024-03-17T15:00:42;15.50;1.00
1592;DHT22;789;51.612;7.510;2024-03-17T15:03:10;15.40;1.00
1592;DHT22;789;51.612;7.510;2024-03-17T15:05:37;15.40;1.00
1592;DHT22;789;51.612;7.510;2024-03-17T15:08:05;15.40;1.00
1592;DHT22;789;51.612;7.510;2024-03-17T15:10:35;15.40;1.00
1592;DHT22;789;51.612;7.510;2024-03-17T15:13:02;15.40;1.00
1592;DHT22;789;51.612;7.510;2024-03-17T15:15:29;15.40;1.00
1592;DHT22;789;51.612;7.510;2024-03-17T15:17:55;15.30;1.00
1592;DHT22;789;51.612;7.510;2024-03-17T15:20:23;15.20;1.00
1592;DHT22;789;51.612;7.510;2024-03-17T15:22:51;15.20;1.00
1592;DHT22;789;51.612;7.510;2024-03-17T15:25:18;15.20;1.00
1592;DHT22;789;51.612;7.510;2024-03-17T15:27:46;15.20;1.00
1592;DHT22;789;51.612;7.510;2024-03-17T15:30:13;15.50;1.00
1592;DHT22;789;51.612;7.510;2024-03-17T15:32:44;15.20;1.00
1592;DHT22;789;51.612;7.510;2024-03-17T15:35:11;15.20;1.00
1592;DHT22;789;51.612;7.510;2024-03-17T15:37:40;15.70;1.00
1592;DHT22;789;51.612;7.510;2024-03-17T15:40:08;15.60;1.00
1592;DHT22;789;51.612;7.510;2024-03-17T15:42:42;15.10;1.00
1592;DHT22;789;51.612;7.510;2024-03-17T15:45:09;15.70;1.00
1592;DHT22;789;51.612;7.510;2024-03-17T15:47:37;15.00;1.00
1592;DHT22;789;51.612;7.510;2024-03-17T15:50:04;14.90;1.00
1592;DHT22;789;51.612;7.510;2024-03-17T15:52:31;15.00;1.00
1592;DHT22;789;51.612;7.510;2024-03-17T15:55:01;15.00;1.00
1592;DHT22;789;51.612;7.510;2024-03-17T15:57:28;15.00;1.00
1592;DHT22;789;51.612;7.510;2024-03-17T15:59:55;15.40;1.00
1592;DHT22;789;51.612;7.510;2024-03-17T16:02:23;15.40;1.00
1592;DHT22;789;51.612;7.510;2024-03-17T16:04:50;14.90;1.00
1592;DHT22;789;51.612;7.510;2024-03-17T16:07:17;15.20;1.00
1592;DHT22;789;51.612;7.510;2024-03-17T16:09:45;14.80;1.00
1592;DHT22;789;51.612;7.510;2024-03-17T16:12:13;14.80;1.00
1592;DHT22;789;51.612;7.510;2024-03-17T16:14:42;14.80;1.00
1592;DHT22;789;51.612;7.510;2024-03-17T16:17:10;14.70;1.00
1592;DHT22;789;51.612;7.510;2024-03-17T16:19:37;15.20;1.00
1592;DHT22;789;51.612;7.510;2024-03-17T16:22:06;15.30;1.00
1592;DHT22;789;51.612;7.510;2024-03-17T16:24:34;14.70;1.00
1592;DHT22;789;51.612;7.510;2024-03-17T16:27:02;14.70;1.00
1592;DHT22;789;51.612;7.510;2024-03-17T16:29:32;14.60;1.00
1592;DHT22;789;51.612;7.510;2024-03-17T16:31:59;14.60;1.00
1592;DHT22;789;51.612;7.510;2024-03-17T16:34:26;14.50;1.00
1592;DHT22;789;51.612;7.510;2024-03-17T16:36:53;14.50;1.00
1592;DHT22;789;51.612;7.510;2024-03-17T16:39:20;14.50;1.00
1592;DHT22;789;51.612;7.510;2024-03-17T16:41:47;14.40;1.00
1592;DHT22;789;51.612;7.510;2024-03-17T16:44:20;14.40;1.00
1592;DHT22;789;51.612;7.510;2024-03-17T16:47:26;14.70;1.00
1592;DHT22;789;51.612;7.510;2024-03-17T16:49:55;14.50;1.00